createdAt,value
2018-09-08T00:00:30.081Z,4.60
2018-09-08T00:02:59.010Z,4.90
2018-09-08T00:05:27.150Z,4.73
2018-09-08T00:07:55.307Z,4.80
2018-09-08T00:10:23.418Z,4.83
2018-09-08T00:12:51.542Z,5.37
2018-09-08T00:15:31.850Z,5.10
2018-09-08T00:18:05.507Z,4.90
2018-09-08T00:20:39.046Z,4.47
2018-09-08T00:23:12.438Z,7.20
2018-09-08T00:25:46.007Z,6.80
2018-09-08T00:28:20.145Z,5.90
2018-09-08T00:30:48.314Z,5.97
2018-09-08T00:33:16.441Z,5.17
2018-09-08T00:35:44.669Z,5.53
2018-09-08T00:38:12.839Z,4.97
2018-09-08T00:40:40.986Z,4.97
2018-09-08T00:43:09.156Z,4.97
2018-09-08T00:45:37.345Z,5.07
2018-09-08T00:48:05.488Z,4.43
2018-09-08T00:50:33.670Z,4.57
2018-09-08T00:53:01.802Z,4.93
2018-09-08T00:55:29.933Z,4.43
2018-09-08T00:57:58.101Z,4.30
2018-09-08T01:00:26.281Z,5.00
2018-09-08T01:02:54.406Z,4.10
2018-09-08T01:05:22.622Z,4.47
2018-09-08T01:07:50.777Z,4.83
2018-09-08T01:10:18.910Z,4.73
2018-09-08T01:12:47.050Z,4.93
2018-09-08T01:15:15.194Z,4.70
2018-09-08T01:17:43.313Z,4.80
2018-09-08T01:20:11.439Z,5.03
2018-09-08T01:22:39.557Z,4.90
2018-09-08T01:25:07.679Z,5.17
2018-09-08T01:27:35.836Z,4.93
2018-09-08T01:30:04.020Z,5.07
2018-09-08T01:32:32.130Z,5.30
2018-09-08T01:35:00.295Z,5.40
2018-09-08T01:37:28.426Z,4.73
2018-09-08T01:39:56.561Z,5.27
2018-09-08T01:42:24.683Z,4.63
2018-09-08T01:44:52.890Z,5.13
2018-09-08T01:47:21.023Z,4.97
2018-09-08T01:49:49.154Z,5.03
2018-09-08T01:52:17.290Z,4.63
2018-09-08T01:54:45.440Z,4.53
2018-09-08T01:57:13.566Z,4.83
2018-09-08T01:59:41.729Z,4.40
2018-09-08T02:02:09.857Z,4.80
2018-09-08T02:04:38.014Z,5.20
2018-09-08T02:07:06.157Z,4.93
2018-09-08T02:09:34.326Z,4.53
2018-09-08T02:12:02.564Z,4.30
2018-09-08T02:14:30.741Z,4.57
2018-09-08T02:16:58.861Z,4.73
2018-09-08T02:19:27.021Z,4.90
2018-09-08T02:21:54.966Z,4.80
2018-09-08T02:24:23.094Z,4.73
2018-09-08T02:26:51.241Z,4.37
2018-09-08T02:29:19.369Z,4.57
2018-09-08T02:31:47.507Z,4.90
2018-09-08T02:34:15.665Z,4.60
2018-09-08T02:36:43.882Z,4.10
2018-09-08T02:39:12.017Z,4.77
2018-09-08T02:41:40.141Z,4.67
2018-09-08T02:44:08.614Z,5.00
2018-09-08T02:46:36.753Z,5.00
2018-09-08T02:49:04.993Z,4.87
2018-09-08T02:51:32.197Z,5.10
2018-09-08T02:53:59.369Z,4.50
2018-09-08T02:56:26.558Z,4.70
2018-09-08T02:58:53.773Z,5.43
2018-09-08T03:01:20.950Z,5.00
2018-09-08T03:03:48.208Z,5.10
2018-09-08T03:06:15.346Z,4.80
2018-09-08T03:08:42.546Z,5.40
2018-09-08T03:11:09.981Z,5.27
2018-09-08T03:13:37.203Z,5.03
2018-09-08T03:16:04.370Z,5.43
2018-09-08T03:18:31.569Z,5.40
2018-09-08T03:20:58.759Z,5.57
2018-09-08T03:23:26.200Z,4.30
2018-09-08T03:25:53.386Z,4.93
2018-09-08T03:28:20.557Z,4.83
2018-09-08T03:30:47.750Z,5.30
2018-09-08T03:33:14.929Z,4.60
2018-09-08T03:35:42.122Z,4.97
2018-09-08T03:38:09.297Z,4.63
2018-09-08T03:40:36.481Z,4.30
2018-09-08T03:43:03.673Z,4.20
2018-09-08T03:45:30.862Z,4.40
2018-09-08T03:47:58.041Z,3.87
2018-09-08T03:50:25.230Z,3.93
2018-09-08T03:52:52.405Z,4.97
2018-09-08T03:55:19.590Z,4.40
2018-09-08T03:57:46.781Z,4.03
2018-09-08T04:00:13.949Z,4.33
2018-09-08T04:02:42.259Z,4.57
2018-09-08T04:05:10.408Z,4.00
2018-09-08T04:07:38.574Z,4.60
2018-09-08T04:10:06.734Z,4.00
2018-09-08T04:12:34.887Z,4.43
2018-09-08T04:15:03.015Z,4.43
2018-09-08T04:17:31.176Z,4.03
2018-09-08T04:19:59.083Z,4.77
2018-09-08T04:22:33.285Z,5.00
2018-09-08T04:25:01.414Z,5.00
2018-09-08T04:27:29.508Z,4.07
2018-09-08T04:29:57.626Z,4.27
2018-09-08T04:32:25.770Z,4.20
2018-09-08T04:34:53.947Z,4.50
2018-09-08T04:37:22.094Z,4.70
2018-09-08T04:39:50.205Z,4.47
2018-09-08T04:42:18.138Z,4.30
2018-09-08T04:44:46.288Z,3.80
2018-09-08T04:47:14.426Z,4.53
2018-09-08T04:49:42.644Z,3.87
2018-09-08T04:52:10.782Z,3.87
2018-09-08T04:54:38.922Z,3.50
2018-09-08T04:57:07.053Z,3.20
2018-09-08T04:59:35.226Z,3.10
2018-09-08T05:02:03.353Z,3.33
2018-09-08T05:04:31.485Z,4.47
2018-09-08T05:06:59.633Z,4.17
2018-09-08T05:09:27.767Z,3.90
2018-09-08T05:11:55.896Z,3.63
2018-09-08T05:14:23.817Z,4.00
2018-09-08T05:16:51.725Z,3.97
2018-09-08T05:19:19.854Z,4.47
2018-09-08T05:21:47.974Z,4.33
2018-09-08T05:24:16.102Z,4.90
2018-09-08T05:26:44.241Z,5.10
2018-09-08T05:29:12.388Z,4.90
2018-09-08T05:31:40.505Z,4.90
2018-09-08T05:34:08.638Z,4.90
2018-09-08T05:36:36.770Z,5.03
2018-09-08T05:39:06.117Z,4.87
2018-09-08T05:41:34.242Z,5.43
2018-09-08T05:44:02.171Z,5.30
2018-09-08T05:46:30.281Z,5.43
2018-09-08T05:48:58.508Z,5.40
2018-09-08T05:51:26.562Z,5.97
2018-09-08T05:53:55.730Z,6.40
2018-09-08T05:56:23.855Z,5.77
2018-09-08T05:58:52.150Z,7.07
2018-09-08T06:01:20.271Z,6.20
2018-09-08T06:03:48.633Z,7.00
2018-09-08T06:06:16.757Z,6.83
2018-09-08T06:08:44.919Z,7.40
2018-09-08T06:11:13.055Z,7.63
2018-09-08T06:13:41.214Z,6.93
2018-09-08T06:16:09.389Z,6.63
2018-09-08T06:18:37.338Z,6.43
2018-09-08T06:21:05.297Z,7.33
2018-09-08T06:23:33.232Z,6.93
2018-09-08T06:26:01.369Z,6.27
2018-09-08T06:28:29.547Z,6.13
2018-09-08T06:30:58.051Z,6.20
2018-09-08T06:33:26.213Z,6.00
2018-09-08T06:35:54.346Z,5.23
2018-09-08T06:38:22.512Z,5.13
2018-09-08T06:40:50.631Z,5.00
2018-09-08T06:43:18.542Z,4.90
2018-09-08T06:45:46.471Z,5.10
2018-09-08T06:48:14.614Z,5.30
2018-09-08T06:50:42.818Z,5.20
2018-09-08T06:53:10.946Z,5.00
2018-09-08T06:55:39.119Z,6.17
2018-09-08T06:58:07.438Z,5.00
2018-09-08T07:00:35.423Z,5.03
2018-09-08T07:03:03.497Z,4.73
2018-09-08T07:05:31.877Z,4.10
2018-09-08T07:08:00.033Z,4.20
2018-09-08T07:10:28.172Z,4.60
2018-09-08T07:12:56.281Z,4.27
2018-09-08T07:15:24.198Z,4.10
2018-09-08T07:17:52.141Z,4.30
2018-09-08T07:20:20.278Z,3.50
2018-09-08T07:22:48.186Z,3.93
2018-09-08T07:25:16.119Z,2.93
2018-09-08T07:27:44.001Z,4.07
2018-09-08T07:30:12.139Z,3.43
2018-09-08T07:32:40.258Z,3.23
2018-09-08T07:35:08.408Z,3.03
2018-09-08T07:37:36.602Z,3.27
2018-09-08T07:40:04.637Z,3.10
2018-09-08T07:42:32.771Z,2.10
2018-09-08T07:45:00.919Z,2.00
2018-09-08T07:47:28.818Z,2.10
2018-09-08T07:49:56.761Z,1.10
2018-09-08T07:52:24.891Z,0.93
2018-09-08T07:54:53.037Z,0.97
2018-09-08T07:57:21.201Z,0.97
2018-09-08T07:59:49.390Z,1.00
2018-09-08T08:02:17.526Z,0.90
2018-09-08T08:04:45.669Z,0.90
2018-09-08T08:07:14.382Z,0.90
2018-09-08T08:09:43.478Z,1.10
2018-09-08T08:12:11.852Z,1.03
2018-09-08T08:14:40.328Z,1.10
2018-09-08T08:17:08.444Z,0.90
2018-09-08T08:19:37.094Z,1.10
2018-09-08T08:22:04.997Z,1.10
2018-09-08T08:24:33.146Z,1.00
2018-09-08T08:27:01.606Z,1.30
2018-09-08T08:29:29.999Z,1.00
2018-09-08T08:31:58.128Z,1.13
2018-09-08T08:34:26.258Z,1.73
2018-09-08T08:36:54.164Z,1.20
2018-09-08T08:39:22.299Z,1.73
2018-09-08T08:41:50.425Z,1.33
2018-09-08T08:44:18.565Z,1.50
2018-09-08T08:46:46.703Z,1.43
2018-09-08T08:49:14.845Z,1.50
2018-09-08T08:51:54.401Z,1.37
2018-09-08T08:54:30.026Z,1.60
2018-09-08T08:56:58.158Z,1.60
2018-09-08T08:59:26.069Z,1.60
2018-09-08T09:02:00.638Z,1.40
2018-09-08T09:04:28.789Z,1.47
2018-09-08T09:06:57.357Z,1.37
2018-09-08T09:09:25.095Z,1.70
2018-09-08T09:11:53.720Z,1.60
2018-09-08T09:14:21.153Z,1.50
2018-09-08T09:16:49.298Z,1.87
2018-09-08T09:20:26.870Z,1.57
2018-09-08T09:23:06.670Z,1.40
2018-09-08T09:25:34.674Z,1.83
2018-09-08T09:28:02.833Z,1.60
2018-09-08T09:30:30.981Z,1.40
2018-09-08T09:32:59.357Z,1.50
2018-09-08T09:35:27.399Z,1.87
2018-09-08T09:37:55.392Z,1.73
2018-09-08T09:40:23.585Z,1.60
2018-09-08T09:42:51.710Z,1.80
2018-09-08T09:45:19.832Z,1.77
2018-09-08T09:47:47.733Z,1.63
2018-09-08T09:50:15.854Z,1.53
2018-09-08T09:52:43.969Z,1.63
2018-09-08T09:55:11.869Z,1.80
2018-09-08T09:57:39.990Z,1.70
2018-09-08T10:00:09.511Z,1.80
2018-09-08T10:02:40.585Z,1.80
2018-09-08T10:05:24.707Z,1.60
2018-09-08T10:07:53.729Z,1.80
2018-09-08T10:10:25.273Z,2.00
2018-09-08T10:12:53.393Z,2.03
2018-09-08T10:15:21.521Z,2.30
2018-09-08T10:17:49.679Z,2.00
2018-09-08T10:20:19.218Z,1.80
2018-09-08T10:22:47.341Z,2.00
2018-09-08T10:25:16.818Z,2.07
2018-09-08T10:27:45.392Z,1.80
2018-09-08T10:30:14.134Z,1.90
2018-09-08T10:32:43.246Z,2.07
2018-09-08T10:35:11.366Z,1.90
2018-09-08T10:37:39.529Z,1.60
2018-09-08T10:40:08.745Z,1.70
2018-09-08T10:42:36.906Z,1.90
2018-09-08T10:45:04.913Z,1.77
2018-09-08T10:47:33.071Z,1.40
2018-09-08T10:50:01.187Z,1.80
2018-09-08T10:52:32.321Z,1.90
2018-09-08T10:55:00.450Z,1.97
2018-09-08T10:57:28.610Z,2.20
2018-09-08T10:59:56.857Z,2.10
2018-09-08T11:02:25.297Z,2.00
2018-09-08T11:04:53.350Z,1.87
2018-09-08T11:07:21.507Z,2.70
2018-09-08T11:09:49.672Z,1.90
2018-09-08T11:12:17.813Z,1.77
2018-09-08T11:14:45.941Z,1.80
2018-09-08T11:17:14.182Z,1.70
2018-09-08T11:19:42.291Z,2.33
2018-09-08T11:22:10.459Z,2.03
2018-09-08T11:24:38.629Z,1.90
2018-09-08T11:27:06.761Z,1.70
2018-09-08T11:29:34.883Z,2.23
2018-09-08T11:32:03.053Z,1.87
2018-09-08T11:34:31.245Z,2.10
2018-09-08T11:36:59.401Z,2.17
2018-09-08T11:39:27.510Z,2.20
2018-09-08T11:41:55.639Z,2.37
2018-09-08T11:44:23.786Z,2.23
2018-09-08T11:46:51.909Z,2.17
2018-09-08T11:49:20.035Z,2.10
2018-09-08T11:51:48.174Z,2.10
2018-09-08T11:54:16.332Z,2.00
2018-09-08T11:56:44.465Z,2.60
2018-09-08T11:59:12.598Z,2.20
2018-09-08T12:01:40.742Z,2.33
2018-09-08T12:04:08.903Z,2.17
2018-09-08T12:06:37.067Z,2.10
2018-09-08T12:09:07.448Z,2.40
2018-09-08T12:11:35.678Z,2.50
2018-09-08T12:14:03.848Z,2.70
2018-09-08T12:16:31.964Z,3.50
2018-09-08T12:19:00.176Z,2.60
2018-09-08T12:21:28.258Z,2.47
2018-09-08T12:23:56.410Z,2.67
2018-09-08T12:26:24.546Z,2.13
2018-09-08T12:28:52.732Z,2.10
2018-09-08T12:31:20.870Z,2.00
2018-09-08T12:33:49.024Z,2.37
2018-09-08T12:36:17.151Z,2.90
2018-09-08T12:38:45.356Z,2.50
2018-09-08T12:41:13.469Z,2.30
2018-09-08T12:43:41.627Z,2.30
2018-09-08T12:46:09.784Z,2.20
2018-09-08T12:48:37.953Z,2.57
2018-09-08T12:51:06.080Z,2.27
2018-09-08T12:53:34.203Z,2.40
2018-09-08T12:56:02.358Z,2.53
2018-09-08T12:58:30.496Z,2.60
2018-09-08T13:00:58.613Z,2.30
2018-09-08T13:03:26.750Z,2.60
2018-09-08T13:05:54.870Z,2.40
2018-09-08T13:08:22.985Z,2.53
2018-09-08T13:10:51.112Z,2.30
2018-09-08T13:13:19.323Z,2.30
2018-09-08T13:15:47.462Z,2.30
2018-09-08T13:18:15.588Z,2.23
2018-09-08T13:20:43.724Z,2.37
2018-09-08T13:23:11.839Z,2.37
2018-09-08T13:25:39.995Z,2.20
2018-09-08T13:28:08.129Z,2.40
2018-09-08T13:30:36.254Z,2.23
2018-09-08T13:33:04.372Z,2.60
2018-09-08T13:35:32.522Z,2.07
2018-09-08T13:38:00.658Z,2.30
2018-09-08T13:40:28.821Z,2.40
2018-09-08T13:42:56.974Z,2.60
2018-09-08T13:45:25.132Z,2.17
2018-09-08T13:47:53.274Z,2.70
2018-09-08T13:50:21.422Z,2.10
2018-09-08T13:52:49.610Z,2.30
2018-09-08T13:55:17.525Z,2.40
2018-09-08T13:57:45.453Z,2.50
2018-09-08T14:00:13.606Z,2.30
2018-09-08T14:02:41.746Z,2.50
2018-09-08T14:05:09.890Z,2.27
2018-09-08T14:07:42.280Z,2.50
2018-09-08T14:10:10.474Z,2.67
2018-09-08T14:12:38.598Z,2.17
2018-09-08T14:15:06.844Z,2.30
2018-09-08T14:17:34.961Z,2.40
2018-09-08T14:20:03.110Z,2.30
2018-09-08T14:22:31.230Z,2.57
2018-09-08T14:24:59.398Z,2.77
2018-09-08T14:27:27.538Z,2.07
2018-09-08T14:29:55.690Z,2.10
2018-09-08T14:32:23.837Z,2.37
2018-09-08T14:34:52.010Z,2.13
2018-09-08T14:37:20.127Z,2.03
2018-09-08T14:39:48.286Z,2.30
2018-09-08T14:42:16.425Z,2.37
2018-09-08T14:44:44.558Z,2.40
2018-09-08T14:47:13.006Z,2.13
2018-09-08T14:49:41.142Z,2.20
2018-09-08T14:52:09.274Z,2.33
2018-09-08T14:54:37.486Z,2.40
2018-09-08T14:57:05.667Z,2.33
2018-09-08T14:59:33.824Z,2.63
2018-09-08T15:02:02.123Z,2.03
2018-09-08T15:04:30.342Z,2.20
2018-09-08T15:06:58.474Z,2.20
2018-09-08T15:09:26.598Z,2.23
2018-09-08T15:11:54.726Z,2.17
2018-09-08T15:14:22.932Z,2.20
2018-09-08T15:16:51.062Z,2.00
2018-09-08T15:19:19.190Z,2.10
2018-09-08T15:21:47.329Z,1.80
2018-09-08T15:24:15.472Z,1.83
2018-09-08T15:26:43.638Z,1.87
2018-09-08T15:29:11.770Z,2.07
2018-09-08T15:31:39.955Z,2.67
2018-09-08T15:34:08.099Z,2.10
2018-09-08T15:36:36.237Z,2.13
2018-09-08T15:39:06.886Z,1.80
2018-09-08T15:41:35.035Z,1.73
2018-09-08T15:44:03.137Z,1.90
2018-09-08T15:46:31.286Z,1.80
2018-09-08T15:48:59.453Z,1.80
2018-09-08T15:51:27.733Z,1.70
2018-09-08T15:53:56.142Z,2.17
2018-09-08T15:56:24.289Z,1.90
2018-09-08T15:58:52.414Z,2.30
2018-09-08T16:01:20.555Z,2.10
2018-09-08T16:03:48.693Z,1.80
2018-09-08T16:06:16.870Z,1.90
2018-09-08T16:08:45.010Z,2.03
2018-09-08T16:11:12.941Z,1.70
2018-09-08T16:13:40.827Z,2.03
2018-09-08T16:16:08.762Z,1.93
2018-09-08T16:18:36.904Z,1.97
2018-09-08T16:21:05.233Z,2.33
2018-09-08T16:23:33.365Z,2.27
2018-09-08T16:26:01.526Z,1.93
2018-09-08T16:28:29.774Z,1.80
2018-09-08T16:30:57.838Z,2.20
2018-09-08T16:33:25.966Z,1.90
2018-09-08T16:35:54.106Z,2.40
2018-09-08T16:38:22.283Z,2.10
2018-09-08T16:40:50.425Z,2.47
2018-09-08T16:43:18.626Z,1.90
2018-09-08T16:45:46.754Z,2.30
2018-09-08T16:48:14.949Z,2.10
2018-09-08T16:50:43.078Z,1.90
2018-09-08T16:53:11.258Z,1.70
2018-09-08T16:55:39.435Z,1.70
2018-09-08T16:58:07.651Z,2.10
2018-09-08T17:00:35.765Z,2.20
2018-09-08T17:03:03.854Z,1.93
2018-09-08T17:05:32.037Z,2.87
2018-09-08T17:08:00.137Z,2.53
2018-09-08T17:10:28.262Z,2.30
2018-09-08T17:12:56.450Z,2.63
2018-09-08T17:15:24.593Z,2.40
2018-09-08T17:17:52.722Z,1.93
2018-09-08T17:20:20.857Z,2.30
2018-09-08T17:22:49.104Z,2.17
2018-09-08T17:25:17.253Z,1.87
2018-09-08T17:27:45.414Z,2.03
2018-09-08T17:30:13.554Z,1.90
2018-09-08T17:32:41.743Z,1.87
2018-09-08T17:35:09.979Z,1.70
2018-09-08T17:37:38.193Z,2.17
2018-09-08T17:40:06.772Z,2.03
2018-09-08T17:42:34.677Z,2.10
2018-09-08T17:45:02.817Z,1.77
2018-09-08T17:47:30.941Z,1.63
2018-09-08T17:49:59.069Z,1.60
2018-09-08T17:52:27.226Z,1.80
2018-09-08T17:54:55.375Z,2.20
2018-09-08T17:57:23.591Z,2.17
2018-09-08T17:59:51.762Z,2.53
2018-09-08T18:02:19.907Z,2.53
2018-09-08T18:04:48.046Z,1.80
2018-09-08T18:07:17.561Z,1.70
2018-09-08T18:09:46.034Z,1.90
2018-09-08T18:12:13.929Z,1.53
2018-09-08T18:14:42.259Z,1.70
2018-09-08T18:17:10.860Z,1.63
2018-09-08T18:19:39.029Z,1.70
2018-09-08T18:22:07.450Z,2.47
2018-09-08T18:24:35.573Z,1.97
2018-09-08T18:27:03.774Z,1.97
2018-09-08T18:29:31.909Z,2.00
2018-09-08T18:32:00.146Z,2.50
2018-09-08T18:34:28.339Z,2.47
2018-09-08T18:36:56.532Z,2.30
2018-09-08T18:39:24.645Z,2.83
2018-09-08T18:41:52.787Z,2.50
2018-09-08T18:44:20.950Z,2.77
2018-09-08T18:46:49.118Z,2.23
2018-09-08T18:49:17.287Z,2.17
2018-09-08T18:51:45.447Z,2.30
2018-09-08T18:54:13.631Z,2.47
2018-09-08T18:56:41.814Z,2.83
2018-09-08T18:59:10.110Z,4.00
2018-09-08T19:01:38.264Z,3.53
2018-09-08T19:04:06.405Z,3.40
2018-09-08T19:06:34.580Z,4.43
2018-09-08T19:09:02.711Z,6.00
2018-09-08T19:11:30.898Z,7.20
2018-09-08T19:13:59.034Z,9.17
2018-09-08T19:16:27.178Z,7.53
2018-09-08T19:18:55.305Z,4.70
2018-09-08T19:21:23.483Z,5.67
2018-09-08T19:23:57.037Z,5.83
2018-09-08T19:26:25.169Z,4.57
2018-09-08T19:28:59.177Z,5.77
2018-09-08T19:31:27.329Z,4.63
2018-09-08T19:33:55.444Z,3.10
2018-09-08T19:36:23.642Z,2.97
2018-09-08T19:38:51.763Z,2.60
2018-09-08T19:41:19.908Z,3.37
2018-09-08T19:43:48.051Z,3.30
2018-09-08T19:46:21.665Z,4.03
2018-09-08T19:48:49.794Z,4.27
2018-09-08T19:51:17.951Z,3.60
2018-09-08T19:53:51.493Z,3.93
2018-09-08T19:56:24.355Z,4.03
2018-09-08T19:58:55.904Z,3.20
2018-09-08T20:01:24.057Z,3.20
2018-09-08T20:03:52.021Z,3.13
2018-09-08T20:06:20.198Z,2.97
2018-09-08T20:08:48.361Z,2.90
2018-09-08T20:11:16.511Z,3.00
2018-09-08T20:13:44.501Z,2.80
2018-09-08T20:16:12.591Z,3.00
2018-09-08T20:18:40.858Z,3.50
2018-09-08T20:21:09.045Z,3.50
2018-09-08T20:23:36.942Z,3.20
2018-09-08T20:26:05.218Z,2.93
2018-09-08T20:28:33.322Z,2.83
2018-09-08T20:31:01.467Z,3.47
2018-09-08T20:33:30.068Z,3.63
2018-09-08T20:35:58.199Z,3.00
2018-09-08T20:38:26.385Z,3.20
2018-09-08T20:40:54.584Z,3.00
2018-09-08T20:43:22.706Z,2.70
2018-09-08T20:45:50.617Z,2.60
2018-09-08T20:48:19.658Z,2.83
2018-09-08T20:50:47.804Z,3.50
2018-09-08T20:53:16.003Z,3.97
2018-09-08T20:55:44.180Z,3.40
2018-09-08T20:58:12.374Z,2.87
2018-09-08T21:00:40.559Z,3.07
2018-09-08T21:03:08.707Z,6.53
2018-09-08T21:05:36.863Z,7.90
2018-09-08T21:08:05.006Z,6.30
2018-09-08T21:10:32.918Z,5.10
2018-09-08T21:13:01.087Z,4.37
2018-09-08T21:15:29.210Z,4.37
2018-09-08T21:17:57.388Z,3.90
2018-09-08T21:20:25.526Z,3.90
2018-09-08T21:22:53.703Z,4.73
2018-09-08T21:25:21.855Z,4.10
2018-09-08T21:27:50.063Z,9.20
2018-09-08T21:30:18.134Z,3.50
2018-09-08T21:32:46.287Z,3.27
2018-09-08T21:35:14.406Z,4.47
2018-09-08T21:37:42.559Z,5.03
2018-09-08T21:40:10.695Z,4.00
2018-09-08T21:42:38.596Z,3.80
2018-09-08T21:45:06.730Z,4.50
2018-09-08T21:47:34.645Z,4.10
2018-09-08T21:50:02.808Z,3.93
2018-09-08T21:52:30.959Z,3.47
2018-09-08T21:54:59.118Z,4.30
2018-09-08T21:57:27.262Z,4.40
2018-09-08T21:59:55.395Z,4.00
2018-09-08T22:02:23.513Z,5.07
2018-09-08T22:04:51.705Z,4.43
2018-09-08T22:07:19.870Z,6.70
2018-09-08T22:09:47.824Z,9.63
2018-09-08T22:12:15.937Z,12.17
2018-09-08T22:14:44.070Z,8.07
2018-09-08T22:17:12.195Z,4.80
2018-09-08T22:19:40.317Z,5.03
2018-09-08T22:22:08.457Z,4.80
2018-09-08T22:24:36.589Z,3.90
2018-09-08T22:27:05.234Z,2.97
2018-09-08T22:29:33.386Z,3.27
2018-09-08T22:32:01.530Z,3.80
2018-09-08T22:34:29.656Z,3.80
2018-09-08T22:36:57.802Z,3.70
2018-09-08T22:39:25.727Z,3.60
2018-09-08T22:41:53.865Z,3.40
2018-09-08T22:44:22.006Z,3.17
2018-09-08T22:46:50.146Z,2.97
2018-09-08T22:49:18.319Z,2.83
2018-09-08T22:51:46.449Z,3.30
2018-09-08T22:54:14.606Z,3.40
2018-09-08T22:56:42.888Z,3.10
2018-09-08T22:59:10.964Z,3.27
2018-09-08T23:01:39.107Z,3.20
2018-09-08T23:04:07.256Z,4.30
2018-09-08T23:06:35.369Z,4.50
2018-09-08T23:09:03.450Z,4.20
2018-09-08T23:11:31.362Z,3.40
2018-09-08T23:13:59.511Z,3.70
2018-09-08T23:16:27.630Z,3.20
2018-09-08T23:18:55.758Z,3.30
2018-09-08T23:21:23.885Z,3.43
2018-09-08T23:23:52.018Z,3.07
2018-09-08T23:26:20.008Z,3.40
2018-09-08T23:28:48.163Z,3.70
2018-09-08T23:31:16.287Z,3.50
2018-09-08T23:33:44.185Z,3.53
2018-09-08T23:36:12.347Z,2.97
2018-09-08T23:38:40.502Z,3.17
2018-09-08T23:41:08.397Z,3.70
2018-09-08T23:43:36.536Z,3.37
2018-09-08T23:46:04.721Z,3.87
2018-09-08T23:48:32.868Z,3.47
2018-09-08T23:51:01.013Z,3.97
2018-09-08T23:53:29.153Z,3.53
2018-09-08T23:55:57.297Z,3.57
2018-09-08T23:58:25.453Z,3.43
